sensor_id;sensor_type;location;lat;lon;timestamp;temperature;humidity
9965;DHT22;5023;53.554;9.964;2022-12-20T00:10:46;8.00;99.90
9965;DHT22;5023;53.554;9.964;2022-12-20T00:15:48;8.10;99.90
9965;DHT22;5023;53.554;9.964;2022-12-20T00:20:58;8.10;99.90
9965;DHT22;5023;53.554;9.964;2022-12-20T00:26:44;8.10;99.90
9965;DHT22;5023;53.554;9.964;2022-12-20T00:31:46;8.10;99.90
9965;DHT22;5023;53.554;9.964;2022-12-20T00:36:50;8.20;99.90
9965;DHT22;5023;53.554;9.964;2022-12-20T00:42:16;8.20;99.90
9965;DHT22;5023;53.554;9.964;2022-12-20T00:47:23;8.10;99.90
9965;DHT22;5023;53.554;9.964;2022-12-20T00:52:53;8.10;99.90
9965;DHT22;5023;53.554;9.964;2022-12-20T00:58:41;8.10;99.90
9965;DHT22;5023;53.554;9.964;2022-12-20T01:03:58;8.10;99.90
9965;DHT22;5023;53.554;9.964;2022-12-20T01:09:05;8.10;99.90
9965;DHT22;5023;53.554;9.964;2022-12-20T01:14:27;8.10;99.90
9965;DHT22;5023;53.554;9.964;2022-12-20T01:19:41;8.10;99.90
9965;DHT22;5023;53.554;9.964;2022-12-20T01:24:57;8.10;99.90
9965;DHT22;5023;53.554;9.964;2022-12-20T01:30:13;8.10;99.90
9965;DHT22;5023;53.554;9.964;2022-12-20T01:35:16;8.20;99.90
9965;DHT22;5023;53.554;9.964;2022-12-20T01:40:20;8.30;99.90
9965;DHT22;5023;53.554;9.964;2022-12-20T01:45:40;8.20;99.90
9965;DHT22;5023;53.554;9.964;2022-12-20T01:51:15;8.30;99.90
9965;DHT22;5023;53.554;9.964;2022-12-20T01:56:43;8.40;99.90
9965;DHT22;5023;53.554;9.964;2022-12-20T02:01:57;8.50;99.90
9965;DHT22;5023;53.554;9.964;2022-12-20T02:07:30;8.60;99.90
9965;DHT22;5023;53.554;9.964;2022-12-20T02:12:39;8.70;99.90
9965;DHT22;5023;53.554;9.964;2022-12-20T02:18:02;8.70;99.90
9965;DHT22;5023;53.554;9.964;2022-12-20T02:29:23;8.80;99.90
9965;DHT22;5023;53.554;9.964;2022-12-20T02:34:52;8.80;99.90
9965;DHT22;5023;53.554;9.964;2022-12-20T02:39:57;8.80;99.90
9965;DHT22;5023;53.554;9.964;2022-12-20T02:45:04;8.90;99.90
9965;DHT22;5023;53.554;9.964;2022-12-20T02:50:25;8.90;99.90
9965;DHT22;5023;53.554;9.964;2022-12-20T02:55:37;8.90;99.90
9965;DHT22;5023;53.554;9.964;2022-12-20T03:00:45;9.00;99.90
9965;DHT22;5023;53.554;9.964;2022-12-20T03:05:53;9.10;99.90
9965;DHT22;5023;53.554;9.964;2022-12-20T03:11:02;9.10;99.90
9965;DHT22;5023;53.554;9.964;2022-12-20T03:16:06;9.10;99.90
9965;DHT22;5023;53.554;9.964;2022-12-20T03:21:29;9.20;99.90
9965;DHT22;5023;53.554;9.964;2022-12-20T03:26:32;9.20;99.90
9965;DHT22;5023;53.554;9.964;2022-12-20T03:31:35;9.20;99.90
9965;DHT22;5023;53.554;9.964;2022-12-20T03:36:49;9.30;99.90
9965;DHT22;5023;53.554;9.964;2022-12-20T03:41:54;9.30;99.90
9965;DHT22;5023;53.554;9.964;2022-12-20T03:46:56;9.30;99.90
9965;DHT22;5023;53.554;9.964;2022-12-20T03:52:00;9.30;99.90
9965;DHT22;5023;53.554;9.964;2022-12-20T03:57:03;9.40;99.90
9965;DHT22;5023;53.554;9.964;2022-12-20T04:02:23;9.40;99.90
9965;DHT22;5023;53.554;9.964;2022-12-20T04:07:27;9.60;99.90
9965;DHT22;5023;53.554;9.964;2022-12-20T04:12:31;9.60;99.90
9965;DHT22;5023;53.554;9.964;2022-12-20T04:17:33;9.60;99.90
9965;DHT22;5023;53.554;9.964;2022-12-20T04:22:37;9.60;99.90
9965;DHT22;5023;53.554;9.964;2022-12-20T04:27:53;9.60;99.90
9965;DHT22;5023;53.554;9.964;2022-12-20T04:32:58;9.60;99.90
9965;DHT22;5023;53.554;9.964;2022-12-20T04:38:02;9.60;99.90
9965;DHT22;5023;53.554;9.964;2022-12-20T04:43:04;9.60;99.90
9965;DHT22;5023;53.554;9.964;2022-12-20T04:48:07;9.60;99.90
9965;DHT22;5023;53.554;9.964;2022-12-20T04:53:12;9.70;99.90
9965;DHT22;5023;53.554;9.964;2022-12-20T04:58:32;9.70;99.90
9965;DHT22;5023;53.554;9.964;2022-12-20T05:03:35;9.70;99.90
9965;DHT22;5023;53.554;9.964;2022-12-20T05:08:39;9.80;99.90
9965;DHT22;5023;53.554;9.964;2022-12-20T05:14:01;9.80;99.90
9965;DHT22;5023;53.554;9.964;2022-12-20T05:19:31;9.70;99.90
9965;DHT22;5023;53.554;9.964;2022-12-20T05:24:34;9.60;99.90
9965;DHT22;5023;53.554;9.964;2022-12-20T05:29:54;9.60;99.90
9965;DHT22;5023;53.554;9.964;2022-12-20T05:34:58;9.60;99.90
9965;DHT22;5023;53.554;9.964;2022-12-20T05:40:02;9.50;99.90
9965;DHT22;5023;53.554;9.964;2022-12-20T05:45:26;9.50;99.90
9965;DHT22;5023;53.554;9.964;2022-12-20T05:50:28;9.50;99.90
9965;DHT22;5023;53.554;9.964;2022-12-20T05:55:32;9.50;99.90
9965;DHT22;5023;53.554;9.964;2022-12-20T06:00:52;9.50;99.90
9965;DHT22;5023;53.554;9.964;2022-12-20T06:05:57;9.50;99.90
9965;DHT22;5023;53.554;9.964;2022-12-20T06:11:04;9.50;99.90
9965;DHT22;5023;53.554;9.964;2022-12-20T06:16:08;9.60;99.90
9965;DHT22;5023;53.554;9.964;2022-12-20T06:21:10;9.60;99.90
9965;DHT22;5023;53.554;9.964;2022-12-20T06:26:23;9.60;99.90
9965;DHT22;5023;53.554;9.964;2022-12-20T06:31:41;9.60;99.90
9965;DHT22;5023;53.554;9.964;2022-12-20T06:36:44;9.60;99.90
9965;DHT22;5023;53.554;9.964;2022-12-20T06:41:55;9.60;99.90
9965;DHT22;5023;53.554;9.964;2022-12-20T06:47:42;9.50;99.90
9965;DHT22;5023;53.554;9.964;2022-12-20T06:52:44;9.60;99.90
9965;DHT22;5023;53.554;9.964;2022-12-20T07:03:49;9.60;99.90
9965;DHT22;5023;53.554;9.964;2022-12-20T07:09:11;9.70;99.90
9965;DHT22;5023;53.554;9.964;2022-12-20T07:14:13;9.70;99.90
9965;DHT22;5023;53.554;9.964;2022-12-20T07:19:43;9.60;99.90
9965;DHT22;5023;53.554;9.964;2022-12-20T07:25:00;9.60;99.90
9965;DHT22;5023;53.554;9.964;2022-12-20T07:30:25;9.60;99.90
9965;DHT22;5023;53.554;9.964;2022-12-20T07:35:29;9.60;99.90
9965;DHT22;5023;53.554;9.964;2022-12-20T07:40:55;9.60;99.90
9965;DHT22;5023;53.554;9.964;2022-12-20T07:45:58;9.60;99.90
9965;DHT22;5023;53.554;9.964;2022-12-20T07:51:05;9.60;99.90
9965;DHT22;5023;53.554;9.964;2022-12-20T07:56:51;9.50;99.90
9965;DHT22;5023;53.554;9.964;2022-12-20T08:01:57;9.50;99.90
9965;DHT22;5023;53.554;9.964;2022-12-20T08:07:00;9.50;99.90
9965;DHT22;5023;53.554;9.964;2022-12-20T08:12:44;9.50;99.90
9965;DHT22;5023;53.554;9.964;2022-12-20T08:18:16;9.50;99.90
9965;DHT22;5023;53.554;9.964;2022-12-20T08:23:23;9.50;99.90
9965;DHT22;5023;53.554;9.964;2022-12-20T08:29:11;9.50;99.90
9965;DHT22;5023;53.554;9.964;2022-12-20T08:34:13;9.50;99.90
9965;DHT22;5023;53.554;9.964;2022-12-20T08:39:17;9.60;99.90
9965;DHT22;5023;53.554;9.964;2022-12-20T08:44:20;9.60;99.90
9965;DHT22;5023;53.554;9.964;2022-12-20T08:49:22;9.70;99.90
9965;DHT22;5023;53.554;9.964;2022-12-20T08:54:27;9.90;99.90
9965;DHT22;5023;53.554;9.964;2022-12-20T08:59:29;9.90;99.90
9965;DHT22;5023;53.554;9.964;2022-12-20T09:04:31;10.00;99.90
9965;DHT22;5023;53.554;9.964;2022-12-20T09:09:41;10.20;99.90
9965;DHT22;5023;53.554;9.964;2022-12-20T09:14:45;10.40;99.90
9965;DHT22;5023;53.554;9.964;2022-12-20T09:19:50;10.50;99.90
9965;DHT22;5023;53.554;9.964;2022-12-20T09:24:57;10.60;99.90
9965;DHT22;5023;53.554;9.964;2022-12-20T09:30:00;10.60;99.90
9965;DHT22;5023;53.554;9.964;2022-12-20T09:35:03;10.60;99.90
9965;DHT22;5023;53.554;9.964;2022-12-20T09:40:30;10.70;99.90
9965;DHT22;5023;53.554;9.964;2022-12-20T09:45:37;10.70;99.90
9965;DHT22;5023;53.554;9.964;2022-12-20T09:50:47;10.70;99.90
9965;DHT22;5023;53.554;9.964;2022-12-20T09:55:59;10.70;99.90
9965;DHT22;5023;53.554;9.964;2022-12-20T10:01:16;10.80;99.90
9965;DHT22;5023;53.554;9.964;2022-12-20T10:06:44;10.70;99.90
9965;DHT22;5023;53.554;9.964;2022-12-20T10:12:03;10.70;99.90
9965;DHT22;5023;53.554;9.964;2022-12-20T10:17:39;10.60;99.90
9965;DHT22;5023;53.554;9.964;2022-12-20T10:23:13;10.60;99.90
9965;DHT22;5023;53.554;9.964;2022-12-20T10:28:37;10.70;99.90
9965;DHT22;5023;53.554;9.964;2022-12-20T10:33:50;10.80;99.90
9965;DHT22;5023;53.554;9.964;2022-12-20T10:38:53;10.90;99.90
9965;DHT22;5023;53.554;9.964;2022-12-20T10:44:01;11.00;99.90
9965;DHT22;5023;53.554;9.964;2022-12-20T10:49:28;11.10;99.90
9965;DHT22;5023;53.554;9.964;2022-12-20T10:54:34;11.20;99.90
9965;DHT22;5023;53.554;9.964;2022-12-20T10:59:38;11.30;99.90
9965;DHT22;5023;53.554;9.964;2022-12-20T11:04:56;11.30;99.90
9965;DHT22;5023;53.554;9.964;2022-12-20T11:10:00;11.40;99.90
9965;DHT22;5023;53.554;9.964;2022-12-20T11:15:19;11.40;99.90
9965;DHT22;5023;53.554;9.964;2022-12-20T11:20:29;11.50;99.90
9965;DHT22;5023;53.554;9.964;2022-12-20T11:25:42;11.50;99.90
9965;DHT22;5023;53.554;9.964;2022-12-20T11:30:59;11.50;99.90
9965;DHT22;5023;53.554;9.964;2022-12-20T11:36:25;11.50;99.90
9965;DHT22;5023;53.554;9.964;2022-12-20T11:41:34;11.50;99.90
9965;DHT22;5023;53.554;9.964;2022-12-20T11:46:53;11.60;99.90
9965;DHT22;5023;53.554;9.964;2022-12-20T11:52:15;11.60;99.90
9965;DHT22;5023;53.554;9.964;2022-12-20T11:57:26;11.60;99.90
9965;DHT22;5023;53.554;9.964;2022-12-20T12:02:35;11.70;99.90
9965;DHT22;5023;53.554;9.964;2022-12-20T12:07:56;11.70;99.90
9965;DHT22;5023;53.554;9.964;2022-12-20T12:13:06;11.70;99.90
9965;DHT22;5023;53.554;9.964;2022-12-20T12:18:21;11.70;99.90
9965;DHT22;5023;53.554;9.964;2022-12-20T12:23:28;11.70;99.90
9965;DHT22;5023;53.554;9.964;2022-12-20T12:28:32;11.70;99.90
9965;DHT22;5023;53.554;9.964;2022-12-20T12:33:43;11.60;99.90
9965;DHT22;5023;53.554;9.964;2022-12-20T12:39:09;11.60;99.90
9965;DHT22;5023;53.554;9.964;2022-12-20T12:44:33;11.60;99.90
9965;DHT22;5023;53.554;9.964;2022-12-20T12:49:42;11.50;99.90
9965;DHT22;5023;53.554;9.964;2022-12-20T12:54:49;11.40;99.90
9965;DHT22;5023;53.554;9.964;2022-12-20T12:59:52;11.30;99.90
9965;DHT22;5023;53.554;9.964;2022-12-20T13:04:58;11.30;99.90
9965;DHT22;5023;53.554;9.964;2022-12-20T13:16:34;11.20;99.90
9965;DHT22;5023;53.554;9.964;2022-12-20T13:21:42;11.10;99.90
9965;DHT22;5023;53.554;9.964;2022-12-20T13:27:00;11.10;99.90
9965;DHT22;5023;53.554;9.964;2022-12-20T13:37:55;11.10;99.90
9965;DHT22;5023;53.554;9.964;2022-12-20T13:43:05;11.00;99.90
9965;DHT22;5023;53.554;9.964;2022-12-20T13:48:13;11.00;99.90
9965;DHT22;5023;53.554;9.964;2022-12-20T13:53:21;11.00;99.90
9965;DHT22;5023;53.554;9.964;2022-12-20T13:58:32;11.00;99.90
9965;DHT22;5023;53.554;9.964;2022-12-20T14:03:45;11.00;99.90
9965;DHT22;5023;53.554;9.964;2022-12-20T14:08:51;10.90;99.90
9965;DHT22;5023;53.554;9.964;2022-12-20T14:13:56;10.90;99.90
9965;DHT22;5023;53.554;9.964;2022-12-20T14:19:00;10.90;99.90
9965;DHT22;5023;53.554;9.964;2022-12-20T14:24:05;10.90;99.90
9965;DHT22;5023;53.554;9.964;2022-12-20T14:29:17;10.80;99.90
9965;DHT22;5023;53.554;9.964;2022-12-20T14:34:24;10.70;99.90
9965;DHT22;5023;53.554;9.964;2022-12-20T14:39:30;10.80;99.90
9965;DHT22;5023;53.554;9.964;2022-12-20T14:44:47;10.80;99.90
9965;DHT22;5023;53.554;9.964;2022-12-20T14:49:53;10.70;99.90
9965;DHT22;5023;53.554;9.964;2022-12-20T14:54:59;10.70;99.90
9965;DHT22;5023;53.554;9.964;2022-12-20T15:00:11;10.70;99.90
9965;DHT22;5023;53.554;9.964;2022-12-20T15:05:44;10.60;99.90
9965;DHT22;5023;53.554;9.964;2022-12-20T15:10:52;10.60;99.90
9965;DHT22;5023;53.554;9.964;2022-12-20T15:16:01;10.60;99.90
9965;DHT22;5023;53.554;9.964;2022-12-20T15:21:05;10.50;99.90
9965;DHT22;5023;53.554;9.964;2022-12-20T15:26:12;10.50;99.90
9965;DHT22;5023;53.554;9.964;2022-12-20T15:31:17;10.50;99.90
9965;DHT22;5023;53.554;9.964;2022-12-20T15:36:21;10.50;99.90
9965;DHT22;5023;53.554;9.964;2022-12-20T15:42:19;10.50;99.90
9965;DHT22;5023;53.554;9.964;2022-12-20T15:47:23;10.40;99.90
9965;DHT22;5023;53.554;9.964;2022-12-20T15:52:25;10.50;99.90
9965;DHT22;5023;53.554;9.964;2022-12-20T15:57:29;10.40;99.90
9965;DHT22;5023;53.554;9.964;2022-12-20T16:02:32;10.50;99.90
9965;DHT22;5023;53.554;9.964;2022-12-20T16:07:35;10.50;99.90
9965;DHT22;5023;53.554;9.964;2022-12-20T16:12:40;10.50;99.90
9965;DHT22;5023;53.554;9.964;2022-12-20T16:17:44;10.50;99.90
9965;DHT22;5023;53.554;9.964;2022-12-20T16:22:46;10.50;99.90
9965;DHT22;5023;53.554;9.964;2022-12-20T16:27:50;10.50;99.90
9965;DHT22;5023;53.554;9.964;2022-12-20T16:32:52;10.60;99.90
9965;DHT22;5023;53.554;9.964;2022-12-20T16:37:57;10.50;99.90
9965;DHT22;5023;53.554;9.964;2022-12-20T16:43:27;10.50;99.90
9965;DHT22;5023;53.554;9.964;2022-12-20T16:48:29;10.50;99.90
9965;DHT22;5023;53.554;9.964;2022-12-20T16:53:33;10.60;99.90
9965;DHT22;5023;53.554;9.964;2022-12-20T16:58:37;10.50;99.90
9965;DHT22;5023;53.554;9.964;2022-12-20T17:03:39;10.40;99.90
9965;DHT22;5023;53.554;9.964;2022-12-20T17:08:43;10.30;99.90
9965;DHT22;5023;53.554;9.964;2022-12-20T17:14:01;10.30;99.90
9965;DHT22;5023;53.554;9.964;2022-12-20T17:19:07;10.30;99.90
9965;DHT22;5023;53.554;9.964;2022-12-20T17:24:16;10.30;99.90
9965;DHT22;5023;53.554;9.964;2022-12-20T17:29:20;10.30;99.90
9965;DHT22;5023;53.554;9.964;2022-12-20T17:34:44;10.30;99.90
9965;DHT22;5023;53.554;9.964;2022-12-20T17:39:47;10.30;99.90
9965;DHT22;5023;53.554;9.964;2022-12-20T17:44:51;10.30;99.90
9965;DHT22;5023;53.554;9.964;2022-12-20T17:49:53;10.30;99.90
9965;DHT22;5023;53.554;9.964;2022-12-20T17:54:55;10.30;99.90
9965;DHT22;5023;53.554;9.964;2022-12-20T18:00:00;10.30;99.90
9965;DHT22;5023;53.554;9.964;2022-12-20T18:05:23;10.40;99.90
9965;DHT22;5023;53.554;9.964;2022-12-20T18:10:25;10.40;99.90
9965;DHT22;5023;53.554;9.964;2022-12-20T18:15:29;10.40;99.90
9965;DHT22;5023;53.554;9.964;2022-12-20T18:20:33;10.40;99.90
9965;DHT22;5023;53.554;9.964;2022-12-20T18:25:35;10.30;99.90
9965;DHT22;5023;53.554;9.964;2022-12-20T18:30:39;10.30;99.90
9965;DHT22;5023;53.554;9.964;2022-12-20T18:35:41;10.40;99.90
9965;DHT22;5023;53.554;9.964;2022-12-20T18:40:47;10.30;99.90
9965;DHT22;5023;53.554;9.964;2022-12-20T18:45:51;10.40;99.90
9965;DHT22;5023;53.554;9.964;2022-12-20T18:57:19;10.30;99.90
9965;DHT22;5023;53.554;9.964;2022-12-20T19:15:11;10.40;99.90
9965;DHT22;5023;53.554;9.964;2022-12-20T19:20:16;10.30;99.90
9965;DHT22;5023;53.554;9.964;2022-12-20T19:25:24;10.30;99.90
9965;DHT22;5023;53.554;9.964;2022-12-20T19:30:30;10.30;99.90
9965;DHT22;5023;53.554;9.964;2022-12-20T19:35:32;10.30;99.90
9965;DHT22;5023;53.554;9.964;2022-12-20T19:40:37;10.20;99.90
9965;DHT22;5023;53.554;9.964;2022-12-20T19:45:40;10.20;99.90
9965;DHT22;5023;53.554;9.964;2022-12-20T19:50:43;10.20;99.90
9965;DHT22;5023;53.554;9.964;2022-12-20T19:55:51;10.20;99.90
9965;DHT22;5023;53.554;9.964;2022-12-20T20:00:54;10.20;99.90
9965;DHT22;5023;53.554;9.964;2022-12-20T20:05:57;10.20;99.90
9965;DHT22;5023;53.554;9.964;2022-12-20T20:10:59;10.10;99.90
9965;DHT22;5023;53.554;9.964;2022-12-20T20:16:04;10.10;99.90
9965;DHT22;5023;53.554;9.964;2022-12-20T20:21:08;10.10;99.90
9965;DHT22;5023;53.554;9.964;2022-12-20T20:26:14;10.10;99.90
9965;DHT22;5023;53.554;9.964;2022-12-20T20:31:18;10.00;99.90
9965;DHT22;5023;53.554;9.964;2022-12-20T20:36:21;10.00;99.90
9965;DHT22;5023;53.554;9.964;2022-12-20T20:41:24;10.00;99.90
9965;DHT22;5023;53.554;9.964;2022-12-20T20:46:28;9.90;99.90
9965;DHT22;5023;53.554;9.964;2022-12-20T20:51:31;10.00;99.90
9965;DHT22;5023;53.554;9.964;2022-12-20T20:56:35;9.90;99.90
9965;DHT22;5023;53.554;9.964;2022-12-20T21:01:39;10.00;99.90
9965;DHT22;5023;53.554;9.964;2022-12-20T21:06:41;10.00;99.90
9965;DHT22;5023;53.554;9.964;2022-12-20T21:11:43;9.90;99.90
9965;DHT22;5023;53.554;9.964;2022-12-20T21:16:46;9.90;99.90
9965;DHT22;5023;53.554;9.964;2022-12-20T21:21:49;9.90;99.90
9965;DHT22;5023;53.554;9.964;2022-12-20T21:26:52;9.90;99.90
9965;DHT22;5023;53.554;9.964;2022-12-20T21:31:56;9.90;99.90
9965;DHT22;5023;53.554;9.964;2022-12-20T21:37:00;9.90;99.90
9965;DHT22;5023;53.554;9.964;2022-12-20T21:42:02;9.90;99.90
9965;DHT22;5023;53.554;9.964;2022-12-20T21:47:06;9.90;99.90
9965;DHT22;5023;53.554;9.964;2022-12-20T21:52:09;9.90;99.90
9965;DHT22;5023;53.554;9.964;2022-12-20T21:57:11;9.90;99.90
9965;DHT22;5023;53.554;9.964;2022-12-20T22:02:14;9.90;99.90
9965;DHT22;5023;53.554;9.964;2022-12-20T22:07:30;9.90;99.90
9965;DHT22;5023;53.554;9.964;2022-12-20T22:12:32;9.90;99.90
9965;DHT22;5023;53.554;9.964;2022-12-20T22:17:36;9.90;99.90
9965;DHT22;5023;53.554;9.964;2022-12-20T22:22:38;9.90;99.90
9965;DHT22;5023;53.554;9.964;2022-12-20T22:27:40;9.90;99.90
9965;DHT22;5023;53.554;9.964;2022-12-20T22:32:44;9.90;99.90
9965;DHT22;5023;53.554;9.964;2022-12-20T22:37:50;9.90;99.90
9965;DHT22;5023;53.554;9.964;2022-12-20T22:42:52;9.80;99.90
9965;DHT22;5023;53.554;9.964;2022-12-20T22:47:56;9.90;99.90
9965;DHT22;5023;53.554;9.964;2022-12-20T22:52:58;9.90;99.90
9965;DHT22;5023;53.554;9.964;2022-12-20T22:58:01;9.80;99.90
9965;DHT22;5023;53.554;9.964;2022-12-20T23:03:05;9.80;99.90
9965;DHT22;5023;53.554;9.964;2022-12-20T23:08:07;9.80;99.90
9965;DHT22;5023;53.554;9.964;2022-12-20T23:13:15;9.80;99.90
9965;DHT22;5023;53.554;9.964;2022-12-20T23:18:37;9.80;99.90
9965;DHT22;5023;53.554;9.964;2022-12-20T23:23:43;9.90;99.90
9965;DHT22;5023;53.554;9.964;2022-12-20T23:29:07;9.80;99.90
9965;DHT22;5023;53.554;9.964;2022-12-20T23:34:11;9.80;99.90
9965;DHT22;5023;53.554;9.964;2022-12-20T23:39:13;9.80;99.90
9965;DHT22;5023;53.554;9.964;2022-12-20T23:44:15;9.80;99.90
9965;DHT22;5023;53.554;9.964;2022-12-20T23:49:19;9.80;99.90
9965;DHT22;5023;53.554;9.964;2022-12-20T23:54:21;9.80;99.90
9965;DHT22;5023;53.554;9.964;2022-12-20T23:59:24;9.80;99.90
